createdAt,value
2022-08-22T00:02:13.986Z,43.80
2022-08-22T00:17:17.569Z,43.51
2022-08-22T00:32:28.051Z,45.29
2022-08-22T00:47:36.520Z,47.91
2022-08-22T01:02:52.655Z,46.38
2022-08-22T01:17:51.603Z,45.92
2022-08-22T01:33:05.392Z,46.43
2022-08-22T01:48:22.831Z,47.07
2022-08-22T02:03:25.297Z,47.40
2022-08-22T02:18:23.276Z,47.72
2022-08-22T03:03:40.149Z,48.22
2022-08-22T03:18:43.314Z,48.48
2022-08-22T03:33:39.238Z,48.85
2022-08-22T03:48:55.702Z,49.84
2022-08-22T04:03:57.874Z,50.02
2022-08-22T04:34:05.031Z,50.08
2022-08-22T04:49:09.791Z,50.42
2022-08-22T05:04:07.753Z,51.26
2022-08-22T05:19:02.151Z,52.22
2022-08-22T05:33:54.078Z,52.03
2022-08-22T06:18:36.962Z,51.41
2022-08-22T06:33:30.947Z,50.79
2022-08-22T06:48:22.011Z,50.53
2022-08-22T07:03:25.170Z,48.54
2022-08-22T07:18:22.350Z,46.96
2022-08-22T07:33:42.339Z,45.49
2022-08-22T08:04:01.089Z,43.89
2022-08-22T08:18:57.160Z,43.70
2022-08-22T08:33:49.760Z,42.12
2022-08-22T08:49:06.428Z,41.59
2022-08-22T09:04:31.668Z,40.48
2022-08-22T09:20:17.676Z,39.42
2022-08-22T09:35:20.391Z,39.38
2022-08-22T09:50:24.640Z,39.29
2022-08-22T10:05:43.843Z,37.93
2022-08-22T10:20:38.110Z,37.33
2022-08-22T10:35:51.416Z,35.87
2022-08-22T10:50:52.505Z,34.44
2022-08-22T11:05:50.102Z,34.16
2022-08-22T11:21:07.234Z,33.30
2022-08-22T11:36:11.824Z,30.81
2022-08-22T11:51:13.884Z,29.71
2022-08-22T12:06:28.325Z,30.78
2022-08-22T12:21:28.795Z,31.15
2022-08-22T12:36:46.979Z,29.87
2022-08-22T12:52:04.833Z,28.46
2022-08-22T13:07:08.885Z,28.10
2022-08-22T13:22:15.751Z,28.78
2022-08-22T13:37:13.329Z,27.05
2022-08-22T13:52:29.873Z,26.65
2022-08-22T14:07:04.963Z,25.76
2022-08-22T14:21:59.501Z,25.41
2022-08-22T14:36:55.082Z,25.50
2022-08-22T14:51:51.114Z,24.75
2022-08-22T15:06:53.021Z,24.76
2022-08-22T15:21:50.578Z,24.95
2022-08-22T15:37:07.744Z,24.48
2022-08-22T15:52:00.868Z,24.87
2022-08-22T16:21:57.884Z,25.37
2022-08-22T16:36:49.542Z,26.37
2022-08-22T16:52:18.764Z,25.56
2022-08-22T17:07:45.008Z,26.14
2022-08-22T17:22:45.912Z,26.44
2022-08-22T17:37:46.891Z,26.56
2022-08-22T17:53:00.947Z,26.64
2022-08-22T18:08:04.577Z,26.98
2022-08-22T18:23:21.431Z,28.04
2022-08-22T18:38:25.604Z,29.57
2022-08-22T18:53:37.110Z,30.66
2022-08-22T19:08:53.754Z,31.17
2022-08-22T19:23:48.189Z,32.36
2022-08-22T19:38:54.118Z,32.78
2022-08-22T19:54:15.829Z,33.80
2022-08-22T20:09:33.372Z,35.23
2022-08-22T20:25:02.475Z,36.06
2022-08-22T20:40:51.897Z,36.82
2022-08-22T20:55:18.479Z,38.19
2022-08-22T21:10:36.744Z,38.12
2022-08-22T21:25:31.915Z,38.49
2022-08-22T21:40:24.072Z,38.74
2022-08-22T21:55:27.376Z,39.13
2022-08-22T22:10:21.093Z,39.55
2022-08-22T22:25:39.042Z,40.16
2022-08-22T22:40:07.041Z,40.72
2022-08-22T22:54:57.388Z,40.99
2022-08-22T23:09:49.051Z,41.13
2022-08-22T23:24:40.033Z,41.80
2022-08-22T23:39:31.832Z,41.61
2022-08-22T23:54:24.222Z,41.92
